Time;durP1;ratioP1;P1;durP2;ratioP2;P2;SDS_P1;SDS_P2;PMS_P1;PMS_P2;Temp;Humidity;BMP_temperature;BMP_pressure;BME280_temperature;BME280_humidity;BME280_pressure;Samples;Min_cycle;Max_cycle;Signal;HPM_P1;HPM_P2
2022/09/04 00:01:53;;;;;;;9.37;6.00;;;18.00;99.90;;;;;;5050760;28;20475;-64
2022/09/04 00:04:30;;;;;;;4.40;3.50;;;18.00;99.90;;;;;;5049589;28;20467;-63
2022/09/04 00:07:05;;;;;;;9.23;6.73;;;17.90;99.80;;;;;;5039277;28;20941;-62
2022/09/04 00:09:37;;;;;;;6.73;5.20;;;17.90;99.80;;;;;;5051189;28;20463;-64
2022/09/04 00:12:07;;;;;;;8.87;7.70;;;17.90;99.90;;;;;;5048491;28;20868;-62
2022/09/04 00:14:41;;;;;;;5.73;5.23;;;17.90;99.90;;;;;;5049722;28;20979;-62
2022/09/04 00:17:14;;;;;;;8.00;6.73;;;17.90;99.80;;;;;;5048259;28;20530;-63
2022/09/04 00:19:48;;;;;;;13.53;5.10;;;17.90;99.90;;;;;;5052168;28;20515;-63
2022/09/04 00:22:25;;;;;;;9.40;4.70;;;18.00;99.90;;;;;;5051632;28;20490;-64
2022/09/04 00:25:01;;;;;;;28.93;7.13;;;18.00;99.80;;;;;;5052671;28;20471;-64
2022/09/04 00:27:42;;;;;;;6.57;5.97;;;18.00;99.80;;;;;;5041062;28;20497;-66
2022/09/04 00:30:11;;;;;;;18.63;6.10;;;18.00;99.70;;;;;;5058279;28;20483;-65
2022/09/04 00:32:41;;;;;;;5.67;5.10;;;18.00;99.60;;;;;;5050180;28;20487;-66
2022/09/04 00:35:15;;;;;;;15.63;6.93;;;18.00;99.40;;;;;;5049075;28;20478;-64
2022/09/04 00:37:46;;;;;;;8.67;6.53;;;18.00;99.20;;;;;;5049937;28;21007;-63
2022/09/04 00:40:20;;;;;;;5.13;4.60;;;18.00;99.40;;;;;;5049973;28;20689;-62
2022/09/04 00:43:10;;;;;;;12.23;4.07;;;17.90;99.80;;;;;;5049611;28;20565;-65
2022/09/04 00:45:52;;;;;;;8.37;6.50;;;17.90;99.90;;;;;;5049562;28;20835;-63
2022/09/04 00:48:53;;;;;;;5.27;3.90;;;17.80;99.90;;;;;;5049547;28;20486;-63
2022/09/04 00:51:33;;;;;;;5.40;4.90;;;17.90;99.90;;;;;;4993869;28;20899;-65
2022/09/04 00:54:25;;;;;;;9.83;8.30;;;17.90;99.80;;;;;;5049356;28;20285;-62
2022/09/04 00:57:52;;;;;;;6.20;5.60;;;17.80;99.70;;;;;;5028956;28;20468;-64
2022/09/04 01:00:21;;;;;;;4.83;4.00;;;17.80;99.70;;;;;;5003627;28;20602;-63
2022/09/04 01:03:17;;;;;;;12.57;4.80;;;17.80;99.70;;;;;;5029983;28;21260;-65
2022/09/04 01:06:03;;;;;;;9.87;4.83;;;17.80;99.80;;;;;;5041768;28;20582;-66
2022/09/04 01:08:47;;;;;;;7.15;4.53;;;17.70;99.60;;;;;;5049921;28;20589;-64
2022/09/04 01:11:17;;;;;;;12.10;4.00;;;17.70;99.90;;;;;;5047337;28;20259;-63
2022/09/04 01:13:53;;;;;;;6.50;4.97;;;17.70;99.90;;;;;;5048093;28;20559;-65
2022/09/04 01:16:26;;;;;;;14.73;3.70;;;17.70;99.90;;;;;;5048125;28;20475;-63
2022/09/04 01:18:58;;;;;;;9.83;6.50;;;16.60;99.40;;;;;;5046862;28;20482;-65
2022/09/04 01:22:02;;;;;;;7.40;5.90;;;17.70;99.80;;;;;;5047590;28;20827;-65
2022/09/04 01:24:46;;;;;;;12.33;5.30;;;17.70;99.70;;;;;;5048501;28;20536;-65
2022/09/04 01:27:21;;;;;;;6.05;3.60;;;17.70;99.70;;;;;;5045472;28;20964;-65
2022/09/04 01:29:59;;;;;;;6.13;5.17;;;17.60;99.70;;;;;;5049267;28;20228;-65
2022/09/04 01:32:35;;;;;;;5.43;4.65;;;17.60;99.70;;;;;;5045790;28;20915;-63
2022/09/04 01:35:11;;;;;;;8.50;7.63;;;17.60;99.60;;;;;;5046575;28;20236;-64
2022/09/04 01:37:50;;;;;;;10.00;4.60;;;17.60;99.70;;;;;;5051854;28;20470;-64
2022/09/04 01:40:40;;;;;;;4.70;3.53;;;17.60;99.60;;;;;;5050588;28;20479;-65
2022/09/04 01:43:11;;;;;;;10.00;6.33;;;17.60;99.60;;;;;;5047671;28;20475;-66
2022/09/04 01:45:55;;;;;;;12.43;4.90;;;17.60;99.50;;;;;;5048554;28;20483;-65
2022/09/04 01:48:39;;;;;;;17.87;4.97;;;17.60;99.50;;;;;;5048524;28;20319;-63
2022/09/04 01:51:13;;;;;;;17.63;5.00;;;17.50;99.60;;;;;;5049361;28;20477;-62
2022/09/04 01:53:43;;;;;;;5.57;5.10;;;17.30;99.80;;;;;;5030361;28;20480;-64
2022/09/04 01:56:17;;;;;;;31.47;6.70;;;17.20;99.90;;;;;;5030933;28;20479;-66
2022/09/04 01:58:53;;;;;;;9.37;5.10;;;17.20;99.90;;;;;;5029547;28;20480;-64
2022/09/04 02:01:23;;;;;;;5.63;4.10;;;;;;;;;;5028874;28;20483;-64
2022/09/04 02:03:57;;;;;;;7.00;5.43;;;17.10;99.90;;;;;;5026666;28;20484;-65
2022/09/04 02:06:33;;;;;;;7.83;4.70;;;17.00;99.90;;;;;;5029553;28;20473;-63
2022/09/04 02:09:11;;;;;;;6.63;5.93;;;17.00;99.90;;;;;;5028170;28;20472;-63
2022/09/04 02:11:47;;;;;;;10.23;4.87;;;16.90;99.90;;;;;;5018357;28;20480;-64
2022/09/04 02:14:28;;;;;;;9.33;3.83;;;16.80;99.90;;;;;;5033737;28;20471;-64
2022/09/04 02:17:09;;;;;;;12.60;6.37;;;16.70;99.90;;;;;;5047538;28;20489;-66
2022/09/04 02:19:47;;;;;;;10.93;5.47;;;16.70;99.90;;;;;;5050041;28;20814;-63
2022/09/04 02:22:25;;;;;;;5.47;4.30;;;16.70;99.90;;;;;;5037537;28;20514;-63
2022/09/04 02:24:58;;;;;;;14.43;6.03;;;16.80;99.90;;;;;;5060896;28;20463;-65
2022/09/04 02:27:31;;;;;;;8.30;5.60;;;16.80;99.90;;;;;;5047738;28;20475;-63
2022/09/04 02:30:03;;;;;;;15.73;6.30;;;16.80;99.90;;;;;;5047151;28;20483;-66
2022/09/04 02:32:38;;;;;;;5.80;5.30;;;16.90;99.90;;;;;;5048781;28;20485;-66
2022/09/04 02:35:15;;;;;;;14.47;5.33;;;16.90;99.90;;;;;;5047839;28;20470;-63
2022/09/04 02:37:52;;;;;;;12.23;4.63;;;16.90;99.90;;;;;;5051135;28;20483;-66
2022/09/04 02:40:24;;;;;;;33.50;4.37;;;16.90;99.90;;;;;;5049128;28;20483;-66
2022/09/04 02:43:05;;;;;;;9.87;6.30;;;16.90;99.90;;;;;;5047791;28;20480;-63
2022/09/04 02:45:41;;;;;;;13.47;5.20;;;17.00;99.90;;;;;;5048012;28;20486;-64
2022/09/04 02:48:17;;;;;;;9.10;6.60;;;17.00;99.90;;;;;;5047538;28;20482;-63
2022/09/04 02:50:58;;;;;;;21.40;5.10;;;17.10;99.90;;;;;;5040295;28;20478;-65
2022/09/04 02:53:32;;;;;;;9.27;6.07;;;17.00;99.90;;;;;;5050016;28;20632;-65
2022/09/04 02:56:13;;;;;;;6.77;6.00;;;17.00;99.90;;;;;;5053743;28;20479;-64
2022/09/04 02:58:49;;;;;;;6.10;4.90;;;17.00;99.90;;;;;;5050427;28;20483;-63
2022/09/04 03:01:26;;;;;;;7.25;3.95;;;16.80;99.90;;;;;;5038093;28;20475;-64
2022/09/04 03:04:00;;;;;;;11.37;5.13;;;16.60;99.90;;;;;;5030250;28;20550;-63
2022/09/04 03:06:43;;;;;;;4.85;4.45;;;;;;;;;;5027173;28;20758;-63
2022/09/04 03:09:15;;;;;;;7.60;6.30;;;16.40;99.90;;;;;;5040099;28;20228;-63
2022/09/04 03:11:46;;;;;;;14.23;5.37;;;;;;;;;;5052786;28;20478;-67
2022/09/04 03:14:23;;;;;;;5.63;4.67;;;16.50;99.90;;;;;;5039007;28;20781;-65
2022/09/04 03:16:56;;;;;;;8.43;4.77;;;;;;;;;;5047855;28;20487;-64
2022/09/04 03:19:29;;;;;;;5.20;4.20;;;16.30;99.90;;;;;;5052338;28;20485;-64
2022/09/04 03:22:01;;;;;;;8.77;6.30;;;16.20;99.90;;;;;;5050325;28;20913;-66
2022/09/04 03:24:35;;;;;;;14.03;4.30;;;16.20;99.90;;;;;;5048137;28;20487;-63
2022/09/04 03:27:02;;;;;;;19.43;7.90;;;;;;;;;;5054719;28;21020;-63
2022/09/04 03:29:36;;;;;;;8.83;4.40;;;16.40;99.90;;;;;;5051464;28;20558;-66
2022/09/04 03:32:13;;;;;;;8.30;7.33;;;16.40;99.90;;;;;;5053930;28;20491;-65
2022/09/04 03:34:48;;;;;;;11.07;4.60;;;16.30;99.90;;;;;;5041463;28;20510;-63
2022/09/04 03:37:52;;;;;;;7.20;4.20;;;16.30;99.90;;;;;;5044687;28;20486;-66
2022/09/04 03:40:33;;;;;;;14.75;4.28;;;16.30;99.90;;;;;;5043800;28;20878;-64
2022/09/04 03:43:22;;;;;;;6.77;6.17;;;16.40;99.90;;;;;;5050977;28;20240;-66
2022/09/04 03:45:58;;;;;;;7.15;5.20;;;16.30;99.90;;;;;;5055788;28;20474;-63
2022/09/04 03:48:43;;;;;;;6.33;4.90;;;16.40;99.90;;;;;;5057169;28;20241;-65
2022/09/04 03:51:23;;;;;;;5.60;5.10;;;16.40;99.90;;;;;;5053586;28;20675;-64
2022/09/04 03:54:03;;;;;;;11.30;4.80;;;16.40;99.90;;;;;;5040832;28;20471;-63
2022/09/04 03:56:44;;;;;;;5.27;4.43;;;16.30;99.90;;;;;;5053515;28;20493;-63
2022/09/04 03:59:24;;;;;;;12.83;3.83;;;16.30;99.90;;;;;;5053804;28;20558;-66
2022/09/04 04:02:02;;;;;;;5.23;4.70;;;16.30;99.80;;;;;;5044587;28;20514;-65
2022/09/04 04:05:01;;;;;;;13.43;4.10;;;16.30;99.80;;;;;;5054774;28;20483;-67
2022/09/04 04:07:38;;;;;;;31.37;4.80;;;16.30;99.70;;;;;;5051649;28;20468;-64
2022/09/04 04:10:18;;;;;;;7.57;6.10;;;16.30;99.70;;;;;;5057723;28;20478;-64
2022/09/04 04:13:07;;;;;;;11.20;4.53;;;16.40;99.60;;;;;;5054866;28;20474;-64
2022/09/04 04:15:49;;;;;;;5.47;4.10;;;16.40;99.50;;;;;;5044869;28;20480;-67
2022/09/04 04:18:42;;;;;;;4.97;4.47;;;16.30;99.50;;;;;;5036955;28;20487;-64
2022/09/04 04:21:18;;;;;;;9.47;4.03;;;16.20;99.60;;;;;;5047935;28;20562;-65
2022/09/04 04:24:20;;;;;;;11.83;4.50;;;16.10;99.80;;;;;;5038282;28;20475;-64
2022/09/04 04:26:52;;;;;;;6.30;3.80;;;;;;;;;;5048363;28;20710;-63
2022/09/04 04:29:35;;;;;;;4.60;3.50;;;16.00;99.80;;;;;;5052897;28;20475;-65
2022/09/04 04:32:23;;;;;;;7.63;6.40;;;15.90;99.70;;;;;;5052734;28;20486;-65
2022/09/04 04:35:02;;;;;;;15.60;4.20;;;15.90;99.70;;;;;;5040121;28;20245;-65
2022/09/04 04:37:39;;;;;;;10.50;4.10;;;;;;;;;;5052706;28;20320;-66
2022/09/04 04:40:15;;;;;;;13.40;3.93;;;16.00;99.60;;;;;;5053051;28;21302;-63
2022/09/04 04:42:49;;;;;;;5.33;4.93;;;16.00;99.60;;;;;;5051608;28;20486;-66
2022/09/04 04:48:41;;;;;;;9.90;6.27;;;16.00;99.60;;;;;;5050847;28;20478;-64
2022/09/04 04:51:18;;;;;;;12.13;5.57;;;16.00;99.70;;;;;;5044752;28;20785;-66
2022/09/04 04:53:51;;;;;;;12.53;4.60;;;;;;;;;;5034839;28;20550;-65
2022/09/04 04:56:23;;;;;;;4.70;3.40;;;15.90;99.50;;;;;;5053166;28;20471;-66
2022/09/04 04:59:03;;;;;;;7.03;4.60;;;15.90;99.70;;;;;;5033761;28;20488;-64
2022/09/04 05:01:51;;;;;;;4.97;4.57;;;15.90;99.60;;;;;;5031173;28;20506;-66
2022/09/04 05:04:24;;;;;;;19.27;3.90;;;15.90;99.50;;;;;;5030681;28;20808;-65
2022/09/04 05:06:58;;;;;;;5.90;4.37;;;15.90;99.40;;;;;;5035818;28;21275;-66
2022/09/04 05:09:44;;;;;;;29.67;4.50;;;16.00;99.40;;;;;;5042744;28;20545;-66
2022/09/04 05:12:20;;;;;;;6.10;4.03;;;16.00;99.20;;;;;;5030159;28;20491;-64
2022/09/04 05:14:54;;;;;;;15.00;4.60;;;16.00;99.40;;;;;;5032613;28;20472;-67
2022/09/04 05:17:31;;;;;;;4.90;3.30;;;16.00;99.50;;;;;;5036531;28;20479;-66
2022/09/04 05:20:20;;;;;;;18.63;5.17;;;16.10;99.60;;;;;;5037861;28;20861;-65
2022/09/04 05:22:49;;;;;;;6.90;4.03;;;16.10;99.80;;;;;;5034125;28;20487;-67
2022/09/04 05:25:28;;;;;;;22.53;4.17;;;16.10;99.90;;;;;;5050093;28;20506;-65
2022/09/04 05:28:05;;;;;;;7.77;6.30;;;16.10;99.90;;;;;;5049399;28;20481;-67
2022/09/04 05:30:42;;;;;;;15.40;4.30;;;16.10;99.90;;;;;;5052284;28;20724;-67
2022/09/04 05:33:18;;;;;;;4.60;4.20;;;16.10;99.90;;;;;;5051024;28;20491;-64
2022/09/04 05:35:50;;;;;;;12.10;3.87;;;16.10;99.90;;;;;;5049427;28;20237;-64
2022/09/04 05:38:25;;;;;;;6.23;3.70;;;16.10;99.90;;;;;;5047482;28;20490;-64
2022/09/04 05:41:15;;;;;;;39.00;5.80;;;16.20;99.90;;;;;;5051121;28;20866;-64
2022/09/04 05:43:57;;;;;;;13.17;5.10;;;16.20;99.90;;;;;;5051209;28;20992;-67
2022/09/04 05:46:39;;;;;;;4.50;3.13;;;16.30;99.90;;;;;;5052437;28;20475;-66
2022/09/04 05:49:18;;;;;;;6.07;5.50;;;16.30;99.90;;;;;;5050679;28;20898;-66
2022/09/04 05:52:05;;;;;;;9.97;5.27;;;16.40;99.90;;;;;;5047404;28;20715;-67
2022/09/04 05:54:52;;;;;;;4.43;3.03;;;16.50;99.90;;;;;;5034183;28;20490;-66
2022/09/04 05:57:31;;;;;;;5.13;3.47;;;16.60;99.90;;;;;;5032790;28;20480;-65
2022/09/04 06:00:09;;;;;;;14.37;5.03;;;;;;;;;;5030023;28;20480;-65
2022/09/04 06:03:07;;;;;;;5.10;4.60;;;16.20;99.90;;;;;;5031116;28;20495;-65
2022/09/04 06:05:46;;;;;;;16.13;6.27;;;16.10;99.90;;;;;;5032496;28;20465;-64
2022/09/04 06:08:26;;;;;;;32.17;5.18;;;16.10;99.90;;;;;;5030366;28;20476;-67
2022/09/04 06:11:05;;;;;;;6.03;4.53;;;16.20;99.90;;;;;;5037918;28;20260;-67
2022/09/04 06:13:53;;;;;;;8.53;3.60;;;16.20;99.90;;;;;;5049642;28;20495;-63
2022/09/04 06:16:45;;;;;;;3.60;3.30;;;16.30;99.90;;;;;;5032898;28;21321;-66
2022/09/04 06:19:25;;;;;;;5.60;4.30;;;16.40;99.90;;;;;;5050473;28;20485;-64
2022/09/04 06:22:25;;;;;;;24.63;4.27;;;16.50;99.90;;;;;;5047859;28;20490;-66
2022/09/04 06:25:29;;;;;;;5.27;4.00;;;16.80;99.90;;;;;;5039173;28;20483;-68
2022/09/04 06:28:13;;;;;;;6.10;5.07;;;17.30;99.90;;;;;;5042205;28;20966;-67
2022/09/04 06:30:53;;;;;;;5.33;4.50;;;17.90;99.90;;;;;;5032100;28;21017;-65
2022/09/04 06:33:39;;;;;;;5.57;5.07;;;18.80;99.90;;;;;;5045488;28;20594;-65
2022/09/04 06:36:20;;;;;;;5.93;5.43;;;19.90;99.90;;;;;;5038615;28;20480;-67
2022/09/04 06:39:07;;;;;;;8.17;2.80;;;21.30;99.70;;;;;;5049537;28;20470;-64
2022/09/04 06:41:58;;;;;;;2.80;2.60;;;22.60;96.30;;;;;;5050223;28;20487;-65
2022/09/04 06:44:35;;;;;;;3.20;3.00;;;23.40;95.30;;;;;;5041292;28;21033;-67
2022/09/04 06:47:15;;;;;;;3.10;2.90;;;24.60;93.90;;;;;;5047537;28;20478;-67
2022/09/04 06:50:04;;;;;;;2.47;2.28;;;25.20;92.40;;;;;;5051377;28;20490;-64
2022/09/04 06:52:38;;;;;;;3.10;2.80;;;26.10;90.40;;;;;;5049861;28;20282;-64
2022/09/04 06:55:13;;;;;;;3.80;3.40;;;26.50;88.40;;;;;;5046036;28;20834;-65
2022/09/04 06:58:07;;;;;;;10.73;3.33;;;27.10;88.00;;;;;;5052091;28;20810;-66
2022/09/04 07:00:41;;;;;;;2.40;2.20;;;27.60;86.00;;;;;;5038141;28;20614;-63
2022/09/04 07:03:40;;;;;;;2.70;2.50;;;27.80;84.30;;;;;;5045140;28;21077;-66
2022/09/04 07:06:14;;;;;;;11.07;2.83;;;28.10;83.50;;;;;;5019285;28;20494;-67
2022/09/04 07:08:53;;;;;;;8.40;3.00;;;28.20;82.60;;;;;;5032245;28;20478;-65
2022/09/04 07:11:35;;;;;;;8.50;3.10;;;28.10;82.20;;;;;;5037580;28;20507;-65
2022/09/04 07:14:20;;;;;;;4.30;3.40;;;27.90;83.50;;;;;;5040831;28;20970;-69
2022/09/04 07:16:57;;;;;;;3.27;3.07;;;27.60;86.40;;;;;;5052836;28;20499;-67
2022/09/04 07:19:48;;;;;;;4.60;3.03;;;27.40;83.60;;;;;;5043458;28;20484;-67
2022/09/04 07:22:42;;;;;;;3.83;2.70;;;27.10;87.90;;;;;;5050483;28;20492;-69
2022/09/04 07:25:17;;;;;;;4.43;4.03;;;27.00;90.20;;;;;;5039246;28;20951;-68
2022/09/04 07:28:00;;;;;;;4.40;4.00;;;26.60;86.60;;;;;;5049239;28;20540;-70
2022/09/04 07:30:31;;;;;;;6.50;4.03;;;26.20;87.90;;;;;;5040329;28;20892;-68
2022/09/04 07:33:02;;;;;;;6.23;5.70;;;26.10;90.10;;;;;;5041582;28;20478;-67
2022/09/04 07:35:34;;;;;;;12.60;4.77;;;25.50;90.00;;;;;;5035059;28;20965;-67
2022/09/04 07:38:10;;;;;;;6.37;5.87;;;23.50;88.50;;;;;;5063463;28;20471;-69
2022/09/04 07:40:42;;;;;;;24.50;6.45;;;24.40;91.00;;;;;;5055793;28;21003;-67
2022/09/04 07:43:20;;;;;;;7.27;6.67;;;23.90;91.40;;;;;;5052924;28;20232;-65
2022/09/04 07:45:55;;;;;;;7.40;5.40;;;23.50;92.60;;;;;;5056112;28;20481;-67
2022/09/04 07:48:29;;;;;;;6.80;5.23;;;23.30;93.30;;;;;;5061025;28;20480;-65
2022/09/04 07:51:03;;;;;;;6.67;6.07;;;;;;;;;;5050451;28;20489;-67
2022/09/04 07:53:57;;;;;;;7.23;6.63;;;23.10;93.90;;;;;;5044111;28;20556;-69
2022/09/04 07:56:35;;;;;;;19.02;5.55;;;22.90;95.10;;;;;;5053183;28;21034;-67
2022/09/04 07:59:39;;;;;;;16.13;8.20;;;22.90;95.60;;;;;;5053750;28;20327;-69
2022/09/04 08:02:37;;;;;;;7.60;6.63;;;22.80;95.20;;;;;;5048186;28;20879;-66
2022/09/04 08:05:24;;;;;;;8.55;7.50;;;22.80;95.80;;;;;;5004795;28;20480;-66
2022/09/04 08:08:26;;;;;;;7.90;6.40;;;23.00;97.00;;;;;;5043155;28;20248;-65
2022/09/04 08:11:06;;;;;;;5.83;5.30;;;23.40;96.00;;;;;;5043857;28;20487;-66
2022/09/04 08:14:00;;;;;;;6.70;6.07;;;23.80;96.40;;;;;;5041363;28;20479;-68
2022/09/04 08:16:33;;;;;;;11.43;5.33;;;24.30;95.40;;;;;;5041838;28;20483;-68
2022/09/04 08:19:14;;;;;;;8.63;7.73;;;24.40;94.00;;;;;;5058215;28;20486;-67
2022/09/04 08:21:43;;;;;;;14.20;3.80;;;24.50;92.90;;;;;;5029969;28;20495;-67
2022/09/04 08:24:35;;;;;;;6.63;5.57;;;24.60;93.70;;;;;;5048828;28;20486;-69
2022/09/04 08:27:12;;;;;;;8.60;7.60;;;24.70;92.60;;;;;;5036195;28;20683;-65
2022/09/04 08:29:53;;;;;;;5.90;5.43;;;24.70;92.70;;;;;;5032781;28;20494;-67
2022/09/04 08:32:41;;;;;;;7.50;5.40;;;24.70;93.70;;;;;;5037156;28;20463;-67
2022/09/04 08:35:16;;;;;;;8.47;5.97;;;24.50;92.30;;;;;;5039305;28;20547;-69
2022/09/04 08:37:56;;;;;;;5.60;5.10;;;24.50;94.30;;;;;;5053154;28;21012;-68
2022/09/04 08:40:57;;;;;;;6.07;5.50;;;24.80;93.90;;;;;;5051337;28;20502;-66
2022/09/04 08:44:02;;;;;;;6.30;5.80;;;25.20;92.50;;;;;;5054406;28;20886;-69
2022/09/04 08:46:52;;;;;;;6.33;5.10;;;25.30;92.40;;;;;;5042794;28;20826;-69
2022/09/04 08:49:52;;;;;;;6.30;3.83;;;25.40;92.40;;;;;;5050984;28;20485;-68
2022/09/04 08:52:45;;;;;;;9.10;4.90;;;25.40;92.70;;;;;;5051830;28;20469;-66
2022/09/04 08:55:54;;;;;;;10.63;5.60;;;25.50;91.50;;;;;;5050046;28;20818;-68
2022/09/04 08:58:53;;;;;;;9.90;3.58;;;25.70;91.60;;;;;;5048358;28;20640;-67
2022/09/04 09:02:11;;;;;;;5.32;3.25;;;26.00;91.30;;;;;;5053203;28;20309;-65
2022/09/04 09:05:17;;;;;;;13.53;5.37;;;26.20;91.00;;;;;;5039910;28;20240;-67
2022/09/04 09:08:01;;;;;;;5.60;4.70;;;26.30;90.90;;;;;;5041128;28;20483;-69
2022/09/04 09:10:37;;;;;;;5.57;5.10;;;26.40;90.50;;;;;;5048742;28;20478;-66
2022/09/04 09:13:37;;;;;;;12.60;4.90;;;26.30;90.50;;;;;;5041917;28;20544;-69
2022/09/04 09:16:20;;;;;;;13.50;6.27;;;26.30;89.00;;;;;;5033830;28;20717;-67
2022/09/04 09:19:09;;;;;;;4.87;4.57;;;26.10;89.20;;;;;;5050829;28;20554;-66
2022/09/04 09:21:43;;;;;;;5.23;4.73;;;25.90;88.00;;;;;;5051590;28;20605;-69
2022/09/04 09:24:25;;;;;;;5.93;5.43;;;;;;;;;;5051017;28;20469;-66
2022/09/04 09:27:07;;;;;;;5.93;4.87;;;26.10;90.80;;;;;;5050605;28;20490;-66
2022/09/04 09:29:58;;;;;;;5.20;4.70;;;26.60;90.70;;;;;;5051506;28;20475;-67
2022/09/04 09:33:04;;;;;;;5.80;5.30;;;26.30;87.50;;;;;;5050414;28;20548;-68
2022/09/04 09:35:58;;;;;;;5.90;5.27;;;26.40;86.90;;;;;;5049138;28;20453;-66
2022/09/04 09:38:42;;;;;;;8.10;5.97;;;26.50;88.80;;;;;;5051820;28;20481;-65
2022/09/04 09:41:42;;;;;;;6.00;5.60;;;26.70;89.00;;;;;;5044096;28;20471;-65
2022/09/04 09:44:51;;;;;;;3.70;3.40;;;26.90;85.90;;;;;;5008916;28;20469;-65
2022/09/04 09:47:57;;;;;;;4.47;4.07;;;26.80;85.30;;;;;;5053349;28;20480;-68
2022/09/04 09:50:56;;;;;;;5.00;4.50;;;26.70;85.70;;;;;;5052555;28;20488;-68
2022/09/04 09:54:04;;;;;;;4.23;3.73;;;26.80;85.60;;;;;;5049627;28;21096;-63
2022/09/04 09:57:11;;;;;;;5.33;4.93;;;26.80;82.60;;;;;;5052543;28;20561;-66
2022/09/04 10:00:10;;;;;;;4.80;3.97;;;27.00;85.00;;;;;;5041711;28;20478;-69
2022/09/04 10:03:08;;;;;;;4.87;4.13;;;27.10;84.40;;;;;;5051318;28;20645;-69
2022/09/04 10:06:08;;;;;;;12.57;4.03;;;27.50;85.60;;;;;;5017572;28;20463;-67
2022/09/04 10:08:57;;;;;;;4.20;3.90;;;28.00;84.50;;;;;;5037885;28;20506;-67
2022/09/04 10:12:10;;;;;;;3.00;2.80;;;28.50;84.30;;;;;;5038495;28;20475;-64
2022/09/04 10:15:20;;;;;;;3.50;3.20;;;28.80;80.70;;;;;;4944103;28;20475;-68
2022/09/04 10:18:08;;;;;;;3.83;2.80;;;28.80;77.40;;;;;;4971665;28;20478;-69
2022/09/04 10:21:10;;;;;;;5.60;2.93;;;28.60;77.00;;;;;;4970853;28;20816;-66
2022/09/04 10:24:05;;;;;;;2.97;2.77;;;28.00;73.90;;;;;;5022507;28;21392;-68
2022/09/04 10:27:14;;;;;;;14.23;3.47;;;28.00;79.50;;;;;;5049371;28;20469;-65
2022/09/04 10:29:58;;;;;;;12.00;3.60;;;27.60;74.50;;;;;;5041979;28;20487;-66
2022/09/04 10:32:58;;;;;;;3.13;2.27;;;27.50;76.60;;;;;;5046100;28;20485;-68
2022/09/04 10:35:27;;;;;;;3.30;3.07;;;27.30;74.90;;;;;;5021690;28;20985;-68
2022/09/04 10:38:21;;;;;;;2.47;2.27;;;27.40;76.30;;;;;;5049853;28;20498;-67
2022/09/04 10:41:22;;;;;;;2.70;2.50;;;27.60;76.00;;;;;;5050768;28;20482;-68
2022/09/04 10:44:15;;;;;;;2.60;2.40;;;27.90;76.20;;;;;;5042249;28;20591;-69
2022/09/04 10:46:52;;;;;;;2.43;2.23;;;27.90;76.00;;;;;;5040046;28;20810;-65
2022/09/04 10:49:40;;;;;;;2.10;1.90;;;27.70;75.50;;;;;;5052758;28;20482;-68
2022/09/04 10:52:30;;;;;;;2.47;2.23;;;27.90;76.80;;;;;;5050920;28;20489;-64
2022/09/04 10:55:18;;;;;;;9.33;2.33;;;27.70;74.10;;;;;;5050031;28;20805;-68
2022/09/04 10:57:52;;;;;;;6.27;2.20;;;;;;;;;;5043436;28;20493;-64
2022/09/04 11:00:20;;;;;;;4.43;2.50;;;27.20;75.30;;;;;;5051913;28;20478;-64
2022/09/04 11:03:34;;;;;;;2.93;2.73;;;27.20;74.50;;;;;;5050754;28;20485;-65
2022/09/04 11:06:41;;;;;;;2.40;2.20;;;27.60;72.70;;;;;;4984881;28;21931;-65
2022/09/04 11:09:32;;;;;;;3.93;2.50;;;27.70;72.70;;;;;;5036757;28;21038;-64
2022/09/04 11:12:32;;;;;;;2.13;1.87;;;27.70;70.10;;;;;;5051927;28;21064;-64
2022/09/04 11:15:17;;;;;;;3.50;1.83;;;27.80;68.00;;;;;;5048470;28;20482;-65
2022/09/04 11:18:07;;;;;;;3.90;2.03;;;27.90;66.70;;;;;;5043950;28;21054;-65
2022/09/04 11:21:06;;;;;;;2.97;2.50;;;27.80;68.90;;;;;;5055343;28;20888;-64
2022/09/04 11:24:16;;;;;;;7.20;2.70;;;27.60;67.00;;;;;;5054192;28;21066;-66
2022/09/04 11:27:28;;;;;;;2.67;2.47;;;27.50;65.90;;;;;;5055044;28;20456;-64
2022/09/04 11:30:06;;;;;;;2.93;2.67;;;27.80;67.90;;;;;;5049844;28;20470;-65
2022/09/04 11:32:52;;;;;;;2.40;2.10;;;28.00;66.10;;;;;;5046185;28;20456;-66
2022/09/04 11:35:51;;;;;;;2.00;1.60;;;28.20;67.50;;;;;;5052924;28;20465;-65
2022/09/04 11:38:44;;;;;;;2.13;1.57;;;28.50;69.20;;;;;;5051383;28;20474;-66
2022/09/04 11:41:46;;;;;;;7.63;2.77;;;29.00;68.70;;;;;;5040365;28;20446;-64
2022/09/04 11:44:44;;;;;;;17.07;2.20;;;29.10;65.70;;;;;;5051000;28;21041;-66
2022/09/04 11:47:37;;;;;;;2.20;1.87;;;29.20;63.60;;;;;;5041902;28;20476;-67
2022/09/04 11:50:15;;;;;;;1.97;1.60;;;29.10;61.30;;;;;;5053107;28;20828;-65
2022/09/04 11:53:12;;;;;;;11.63;2.70;;;29.40;67.50;;;;;;5047891;28;20586;-66
2022/09/04 11:56:05;;;;;;;1.97;1.53;;;29.80;64.00;;;;;;5051707;28;20457;-66
2022/09/04 11:58:59;;;;;;;4.43;2.30;;;30.00;61.60;;;;;;5048445;28;20449;-65
2022/09/04 12:01:47;;;;;;;2.30;1.77;;;30.10;60.30;;;;;;5053092;28;20497;-66
2022/09/04 12:04:39;;;;;;;8.90;1.80;;;29.00;63.50;;;;;;5052834;28;20457;-63
2022/09/04 12:07:18;;;;;;;2.27;2.07;;;29.00;67.40;;;;;;5051545;28;20457;-65
2022/09/04 12:10:12;;;;;;;3.20;1.67;;;29.00;70.40;;;;;;5054940;28;20877;-65
2022/09/04 12:13:05;;;;;;;13.70;2.20;;;29.00;69.60;;;;;;5054564;28;20453;-66
2022/09/04 12:16:03;;;;;;;2.67;1.80;;;28.80;68.60;;;;;;5050737;28;21037;-65
2022/09/04 12:19:02;;;;;;;2.10;1.90;;;28.70;67.00;;;;;;5022059;28;20479;-65
2022/09/04 12:22:02;;;;;;;2.40;1.67;;;28.60;68.00;;;;;;5046432;28;20471;-66
2022/09/04 12:24:50;;;;;;;3.23;2.10;;;28.40;67.00;;;;;;5049090;28;20478;-66
2022/09/04 12:27:49;;;;;;;8.23;2.37;;;28.30;68.30;;;;;;5047727;28;20475;-65
2022/09/04 12:30:20;;;;;;;4.70;2.00;;;28.40;68.60;;;;;;5053185;28;20881;-66
2022/09/04 12:33:02;;;;;;;3.17;2.00;;;28.50;68.10;;;;;;5049522;28;20501;-64
2022/09/04 12:36:18;;;;;;;2.73;2.20;;;28.60;65.40;;;;;;5042373;28;20522;-65
2022/09/04 12:39:06;;;;;;;2.00;1.73;;;28.80;67.50;;;;;;4986958;28;20482;-65
2022/09/04 12:41:39;;;;;;;2.80;1.73;;;28.60;65.80;;;;;;4989821;28;20477;-65
2022/09/04 12:44:15;;;;;;;9.00;2.03;;;28.50;65.90;;;;;;5026705;28;20483;-65
2022/09/04 12:46:57;;;;;;;2.10;1.77;;;28.50;66.10;;;;;;5052119;28;20811;-65
2022/09/04 12:50:02;;;;;;;9.60;2.23;;;28.40;64.80;;;;;;5048473;28;21009;-64
2022/09/04 12:52:46;;;;;;;11.63;2.40;;;28.50;65.10;;;;;;5053159;28;20471;-64
2022/09/04 12:55:21;;;;;;;6.03;2.30;;;28.70;66.00;;;;;;5051275;28;20478;-67
2022/09/04 12:57:56;;;;;;;10.37;2.07;;;28.70;64.80;;;;;;5039136;28;20466;-65
2022/09/04 13:00:31;;;;;;;2.57;2.23;;;28.60;63.30;;;;;;5052839;28;20530;-65
2022/09/04 13:03:12;;;;;;;22.17;2.67;;;28.60;65.60;;;;;;5049711;28;20567;-65
2022/09/04 13:06:03;;;;;;;2.53;1.97;;;28.50;65.40;;;;;;5045831;28;20726;-65
2022/09/04 13:08:42;;;;;;;2.60;2.03;;;28.90;68.50;;;;;;5052319;28;20446;-65
2022/09/04 13:11:21;;;;;;;2.30;1.93;;;28.70;65.20;;;;;;5051678;28;20453;-65
2022/09/04 13:13:58;;;;;;;2.10;1.73;;;28.70;64.10;;;;;;5048705;28;20449;-64
2022/09/04 13:16:32;;;;;;;2.10;1.53;;;28.60;66.80;;;;;;5042453;28;20441;-65
2022/09/04 13:19:11;;;;;;;6.13;4.53;;;28.60;67.60;;;;;;5044414;28;21015;-65
2022/09/04 13:22:01;;;;;;;1.97;1.70;;;28.70;65.30;;;;;;5052535;28;20461;-65
2022/09/04 13:24:41;;;;;;;2.00;1.50;;;28.80;66.40;;;;;;5036570;28;20441;-64
2022/09/04 13:27:25;;;;;;;9.73;2.00;;;28.90;67.20;;;;;;5045074;28;20487;-65
2022/09/04 13:30:02;;;;;;;5.40;2.33;;;29.00;65.40;;;;;;5049208;28;20441;-64
2022/09/04 13:33:03;;;;;;;10.70;2.90;;;29.20;64.80;;;;;;5030406;28;20536;-65
2022/09/04 13:35:42;;;;;;;2.50;1.93;;;29.30;59.00;;;;;;5030065;28;20493;-64
2022/09/04 13:38:41;;;;;;;2.50;1.97;;;29.00;64.60;;;;;;5055188;28;20486;-66
2022/09/04 13:41:28;;;;;;;2.10;1.73;;;29.10;65.10;;;;;;5049984;28;20502;-64
2022/09/04 13:44:21;;;;;;;24.33;2.80;;;29.10;63.00;;;;;;5035701;28;20878;-64
2022/09/04 13:46:59;;;;;;;2.10;1.73;;;29.10;62.30;;;;;;5048915;28;21457;-65
2022/09/04 13:49:31;;;;;;;1.97;1.40;;;28.90;62.60;;;;;;5043799;28;20440;-64
2022/09/04 13:52:05;;;;;;;2.10;1.83;;;28.80;65.00;;;;;;5054543;28;20495;-63
2022/09/04 13:54:36;;;;;;;10.30;2.80;;;28.80;64.00;;;;;;5050052;28;20465;-64
2022/09/04 13:57:07;;;;;;;2.40;2.20;;;29.10;63.20;;;;;;5050882;28;20525;-65
2022/09/04 13:59:37;;;;;;;7.30;2.00;;;29.40;62.40;;;;;;5051673;28;20461;-67
2022/09/04 14:02:08;;;;;;;2.70;1.80;;;29.80;62.20;;;;;;5051000;28;20454;-67
2022/09/04 14:04:40;;;;;;;2.20;1.53;;;30.00;56.70;;;;;;5051135;28;20483;-65
2022/09/04 14:07:13;;;;;;;10.20;2.40;;;30.00;57.50;;;;;;5050240;28;20461;-65
2022/09/04 14:09:45;;;;;;;3.13;1.70;;;30.00;56.30;;;;;;5053832;28;20460;-70
2022/09/04 14:12:54;;;;;;;1.83;1.33;;;29.90;58.90;;;;;;5050466;28;20818;-68
2022/09/04 14:15:39;;;;;;;24.23;2.67;;;30.30;60.60;;;;;;4985306;28;20481;-68
2022/09/04 14:18:19;;;;;;;6.47;1.60;;;30.60;58.80;;;;;;5043742;28;20475;-69